Terminal Aerodrome Forecast
Issued by NWS Sioux Falls, SD

Home | Current Version | Previous Version | Graphics & Text | Print | Product List | Glossary Off
Versions: 1 2 3 4 5 6 7 8 9 10 11 12 13 14 15

000
FTUS43 KFSD 142300
TAFHON
TAF
KHON 142326Z 1500/1524 35013KT P6SM BKN060
     FM150200 01008KT P6SM SCT050
     FM150500 VRB03KT P6SM SKC
     FM151300 14007KT P6SM FEW150
     FM151600 15011KT P6SM SCT150
     FM151800 16015G22KT P6SM SCT080 BKN150=

USA.gov is the U.S. government's official web portal to all federal, state and local government web resources and services.